Terminal Aerodrome Forecast
Issued by NWS

Home | Current Version | Previous Version | Graphics & Text | Print | Product List | Glossary On
Versions: 1 2 3 4 5 6 7 8 9 10 11 12 13 14 15 16
835
FTUS43 KBIS 100331 AAA
TAFMOT
TAF AMD
KMOT 100331Z 1004/1024 10011KT 3SM -SN OVC025
      TEMPO 1004/1007 1SM -SN BR OVC012
     FM100700 12008KT 2SM -SN BR OVC012
     FM101100 13008KT 4SM -SN BR OVC015
     FM101400 08007KT 5SM BR OVC008
     FM101900 32009KT P6SM OVC015=

USA.gov is the U.S. government's official web portal to all federal, state and local government web resources and services.